Time;durP1;ratioP1;P1;durP2;ratioP2;P2;SDS_P1;SDS_P2;PMS_P1;PMS_P2;Temp;Humidity;BMP_temperature;BMP_pressure;BME280_temperature;BME280_humidity;BME280_pressure;Samples;Min_cycle;Max_cycle;Signal;HPM_P1;HPM_P2
2021/08/08 00:01:42;;;;;;;12.48;4.90;;;;;;;;;;5003369;28;20038;-63
2021/08/08 00:04:07;;;;;;;7.45;3.80;;;;;;;;;;5001192;28;20355;-63
2021/08/08 00:06:32;;;;;;;9.52;4.13;;;;;;;;;;5001767;28;20030;-64
2021/08/08 00:08:57;;;;;;;8.30;3.92;;;;;;;;;;5001536;28;20038;-63
2021/08/08 00:11:23;;;;;;;10.40;4.53;;;;;;;;;;4999644;28;20033;-64
2021/08/08 00:13:48;;;;;;;9.77;4.60;;;;;;;;;;5001378;28;20146;-63
2021/08/08 00:16:13;;;;;;;12.98;5.70;;;;;;;;;;4999863;28;20038;-63
2021/08/08 00:18:39;;;;;;;8.52;4.13;;;;;;;;;;5001957;28;20026;-64
2021/08/08 00:21:04;;;;;;;13.63;5.50;;;;;;;;;;4982251;28;20029;-63
2021/08/08 00:23:29;;;;;;;7.68;3.90;;;;;;;;;;5001556;28;20435;-63
2021/08/08 00:25:54;;;;;;;10.63;4.53;;;;;;;;;;5002054;28;20030;-63
2021/08/08 00:28:20;;;;;;;12.05;4.97;;;;;;;;;;4999999;28;20049;-63
2021/08/08 00:30:45;;;;;;;14.30;5.65;;;;;;;;;;5000893;28;20340;-63
2021/08/08 00:33:10;;;;;;;11.07;4.30;;;;;;;;;;5000262;28;20053;-63
2021/08/08 00:35:35;;;;;;;10.18;4.35;;;;;;;;;;5002489;28;20355;-63
2021/08/08 00:38:01;;;;;;;10.45;4.05;;;;;;;;;;5000855;28;20084;-64
2021/08/08 00:40:28;;;;;;;10.95;4.88;;;;;;;;;;5001752;28;20441;-64
2021/08/08 00:42:53;;;;;;;9.25;4.10;;;;;;;;;;4999310;28;20021;-63
2021/08/08 00:45:19;;;;;;;10.20;4.75;;;;;;;;;;4984120;28;20026;-64
2021/08/08 00:47:45;;;;;;;10.90;4.60;;;;;;;;;;5000316;28;20295;-63
2021/08/08 00:50:11;;;;;;;14.60;5.85;;;;;;;;;;4999830;28;20029;-64
2021/08/08 00:52:36;;;;;;;12.88;5.65;;;;;;;;;;5002613;28;20548;-64
2021/08/08 00:55:02;;;;;;;10.90;4.70;;;;;;;;;;4982165;28;20030;-64
2021/08/08 00:57:27;;;;;;;12.20;4.82;;;;;;;;;;5001403;28;20453;-64
2021/08/08 00:59:52;;;;;;;12.88;4.95;;;;;;;;;;4998266;28;20100;-64
2021/08/08 01:02:21;;;;;;;10.38;4.07;;;;;;;;;;5000710;28;20030;-64
2021/08/08 01:04:57;;;;;;;14.07;5.72;;;;;;;;;;4999278;28;20026;-64
2021/08/08 01:07:25;;;;;;;10.93;5.03;;;;;;;;;;4983847;28;20103;-64
2021/08/08 01:09:54;;;;;;;15.77;9.52;;;;;;;;;;5000638;28;20045;-64
2021/08/08 01:12:20;;;;;;;11.45;4.97;;;;;;;;;;5001109;28;20414;-63
2021/08/08 01:14:46;;;;;;;11.35;5.45;;;;;;;;;;5000583;28;20023;-64
2021/08/08 01:17:13;;;;;;;20.42;18.80;;;;;;;;;;4998994;28;20392;-63
2021/08/08 01:19:46;;;;;;;13.13;5.93;;;;;;;;;;4999184;28;20037;-63
2021/08/08 01:22:12;;;;;;;10.27;4.38;;;;;;;;;;5000394;28;20025;-63
2021/08/08 01:24:38;;;;;;;10.88;4.60;;;;;;;;;;5000018;28;20018;-63
2021/08/08 01:27:03;;;;;;;12.73;5.68;;;;;;;;;;4999655;28;20033;-62
2021/08/08 01:29:30;;;;;;;10.93;4.50;;;;;;;;;;4998814;28;20065;-62
2021/08/08 01:31:55;;;;;;;26.33;24.30;;;;;;;;;;4980836;28;20059;-63
2021/08/08 01:34:21;;;;;;;10.70;4.43;;;;;;;;;;4999297;28;20450;-63
2021/08/08 01:36:46;;;;;;;7.13;3.95;;;;;;;;;;4997871;28;20044;-62
2021/08/08 01:39:14;;;;;;;8.38;4.18;;;;;;;;;;5001472;28;20053;-62
2021/08/08 01:41:42;;;;;;;7.22;3.72;;;;;;;;;;4999421;28;20053;-62
2021/08/08 01:44:08;;;;;;;11.15;4.93;;;;;;;;;;4999232;28;20022;-62
2021/08/08 01:46:33;;;;;;;25.55;11.18;;;;;;;;;;5000552;28;20036;-62
2021/08/08 01:48:59;;;;;;;6.88;3.47;;;;;;;;;;5001314;28;20053;-62
2021/08/08 01:51:26;;;;;;;64.55;60.83;;;;;;;;;;5000243;28;20038;-62
2021/08/08 01:53:51;;;;;;;13.85;6.18;;;;;;;;;;4999414;28;20037;-62
2021/08/08 01:56:17;;;;;;;208.00;197.65;;;;;;;;;;4997908;28;20029;-62
2021/08/08 01:58:42;;;;;;;743.88;700.08;;;;;;;;;;4999259;28;20046;-62
2021/08/08 02:01:07;;;;;;;88.22;83.63;;;;;;;;;;4998752;28;20030;-64
2021/08/08 02:03:37;;;;;;;73.43;69.40;;;;;;;;;;5002033;28;20075;-62
2021/08/08 02:06:04;;;;;;;145.18;138.57;;;;;;;;;;4998847;28;20041;-62
2021/08/08 02:08:29;;;;;;;223.65;213.45;;;;;;;;;;4998314;28;20026;-62
2021/08/08 02:10:54;;;;;;;13.88;6.32;;;;;;;;;;4998858;28;20417;-62
2021/08/08 02:13:20;;;;;;;19.02;10.00;;;;;;;;;;4998981;28;20052;-62
2021/08/08 02:15:45;;;;;;;72.28;68.63;;;;;;;;;;4999883;28;20056;-62
2021/08/08 02:18:10;;;;;;;112.53;107.00;;;;;;;;;;5001994;28;20307;-62
2021/08/08 02:20:36;;;;;;;326.92;311.63;;;;;;;;;;5000706;28;20049;-62
2021/08/08 02:23:01;;;;;;;453.52;430.30;;;;;;;;;;4982552;28;20326;-62
2021/08/08 02:25:26;;;;;;;539.15;509.98;;;;;;;;;;4998741;28;20113;-62
2021/08/08 02:27:51;;;;;;;696.30;656.63;;;;;;;;;;5000406;28;20034;-62
2021/08/08 02:30:17;;;;;;;796.08;750.08;;;;;;;;;;4998419;28;20684;-62
2021/08/08 02:32:42;;;;;;;778.97;734.15;;;;;;;;;;4998434;28;20025;-62
2021/08/08 02:35:08;;;;;;;862.88;811.60;;;;;;;;;;4999559;28;20144;-62
2021/08/08 02:37:33;;;;;;;869.20;812.80;;;;;;;;;;4998824;28;20298;-62
2021/08/08 02:39:58;;;;;;;882.10;826.45;;;;;;;;;;4998177;28;20048;-63
2021/08/08 02:42:24;;;;;;;863.00;810.13;;;;;;;;;;4997542;28;20391;-63
2021/08/08 02:44:49;;;;;;;853.33;803.13;;;;;;;;;;4997740;28;20026;-62
2021/08/08 02:47:14;;;;;;;771.13;726.20;;;;;;;;;;4999494;28;20061;-62
2021/08/08 02:49:40;;;;;;;799.53;753.08;;;;;;;;;;4996699;28;20044;-63
2021/08/08 02:52:05;;;;;;;778.28;733.22;;;;;;;;;;4999324;28;20307;-63
2021/08/08 02:54:30;;;;;;;844.08;795.20;;;;;;;;;;5000424;28;20283;-63
2021/08/08 02:56:56;;;;;;;788.05;741.38;;;;;;;;;;5000994;28;20057;-62
2021/08/08 02:59:21;;;;;;;755.65;711.85;;;;;;;;;;5001044;28;20398;-63
2021/08/08 03:01:46;;;;;;;474.10;448.73;;;;;;;;;;5003260;28;20085;-63
2021/08/08 03:04:11;;;;;;;455.55;431.80;;;;;;;;;;5003170;28;20112;-63
2021/08/08 03:06:37;;;;;;;516.90;488.50;;;;;;;;;;5002557;28;20422;-63
2021/08/08 03:09:02;;;;;;;491.77;465.25;;;;;;;;;;5003461;28;20346;-62
2021/08/08 03:11:27;;;;;;;377.65;359.08;;;;;;;;;;5003543;28;20053;-62
2021/08/08 03:13:53;;;;;;;404.35;383.65;;;;;;;;;;4986467;28;20058;-62
2021/08/08 03:16:18;;;;;;;324.60;309.58;;;;;;;;;;5002001;28;20119;-62
2021/08/08 03:18:43;;;;;;;386.27;366.48;;;;;;;;;;5002211;28;20279;-63
2021/08/08 03:21:08;;;;;;;372.55;354.13;;;;;;;;;;5001114;28;20108;-63
2021/08/08 03:23:34;;;;;;;431.25;409.48;;;;;;;;;;5003967;28;20411;-63
2021/08/08 03:25:59;;;;;;;448.60;425.38;;;;;;;;;;5000145;28;20112;-63
2021/08/08 03:28:24;;;;;;;426.52;404.40;;;;;;;;;;5006575;28;20368;-63
2021/08/08 03:30:50;;;;;;;492.00;465.65;;;;;;;;;;5003670;28;20061;-63
2021/08/08 03:33:15;;;;;;;599.53;565.78;;;;;;;;;;5002417;28;20383;-63
2021/08/08 03:35:41;;;;;;;634.05;597.65;;;;;;;;;;5000101;28;20021;-63
2021/08/08 03:38:07;;;;;;;733.88;691.75;;;;;;;;;;4991963;28;20373;-62
2021/08/08 03:40:33;;;;;;;753.88;709.83;;;;;;;;;;4998730;28;20030;-62
2021/08/08 03:42:58;;;;;;;738.58;695.40;;;;;;;;;;5001070;28;20030;-63
2021/08/08 03:45:23;;;;;;;826.05;775.00;;;;;;;;;;5000523;28;20403;-62
2021/08/08 03:47:48;;;;;;;821.45;768.58;;;;;;;;;;5000012;28;20149;-63
2021/08/08 03:50:14;;;;;;;776.72;728.92;;;;;;;;;;5002332;28;20320;-63
2021/08/08 03:52:39;;;;;;;817.00;769.03;;;;;;;;;;5002791;28;20030;-63
2021/08/08 03:55:05;;;;;;;841.00;788.53;;;;;;;;;;4993039;28;20368;-63
2021/08/08 03:57:31;;;;;;;837.60;782.13;;;;;;;;;;4996872;28;20121;-62
2021/08/08 03:59:56;;;;;;;827.67;769.70;;;;;;;;;;4982841;28;20034;-63
2021/08/08 04:02:22;;;;;;;536.63;507.10;;;;;;;;;;4981199;28;20026;-63
2021/08/08 04:04:48;;;;;;;817.70;767.83;;;;;;;;;;4983426;28;20026;-63
2021/08/08 04:07:13;;;;;;;820.35;762.35;;;;;;;;;;4981812;28;20396;-63
2021/08/08 04:09:38;;;;;;;815.47;759.47;;;;;;;;;;4981791;28;20030;-63
2021/08/08 04:12:05;;;;;;;809.10;756.15;;;;;;;;;;4981284;28;20097;-63
2021/08/08 04:14:30;;;;;;;806.72;754.70;;;;;;;;;;4984015;28;20031;-63
2021/08/08 04:16:55;;;;;;;814.50;758.33;;;;;;;;;;4982183;28;20046;-63
2021/08/08 04:19:20;;;;;;;811.05;757.00;;;;;;;;;;4981601;28;20101;-63
2021/08/08 04:21:46;;;;;;;806.88;748.15;;;;;;;;;;4981521;28;20026;-63
2021/08/08 04:24:11;;;;;;;807.83;750.35;;;;;;;;;;4982641;28;20031;-63
2021/08/08 04:26:36;;;;;;;804.97;746.55;;;;;;;;;;4984268;28;20061;-63
2021/08/08 04:29:01;;;;;;;817.47;759.63;;;;;;;;;;4983037;28;20379;-63
2021/08/08 04:31:27;;;;;;;818.10;762.00;;;;;;;;;;4983076;28;20037;-63
2021/08/08 04:33:52;;;;;;;804.83;752.10;;;;;;;;;;4982805;28;20118;-63
2021/08/08 04:36:17;;;;;;;807.33;755.75;;;;;;;;;;4982283;28;20034;-63
2021/08/08 04:38:42;;;;;;;637.40;602.33;;;;;;;;;;4981098;28;20038;-64
2021/08/08 04:41:07;;;;;;;493.45;467.33;;;;;;;;;;4981096;28;20023;-64
2021/08/08 04:43:33;;;;;;;474.75;450.00;;;;;;;;;;4982883;28;20027;-63
2021/08/08 04:45:58;;;;;;;496.67;470.17;;;;;;;;;;4982389;28;20072;-64
2021/08/08 04:48:24;;;;;;;500.35;474.27;;;;;;;;;;4980530;28;20042;-64
2021/08/08 04:50:49;;;;;;;512.42;484.88;;;;;;;;;;4981805;28;20287;-63
2021/08/08 04:53:15;;;;;;;550.22;520.58;;;;;;;;;;4980721;28;20149;-63
2021/08/08 04:55:41;;;;;;;565.03;534.60;;;;;;;;;;4981305;28;20045;-63
2021/08/08 04:58:06;;;;;;;623.65;589.00;;;;;;;;;;4996233;28;20066;-63
2021/08/08 05:00:31;;;;;;;645.08;609.17;;;;;;;;;;4999239;28;20031;-64
2021/08/08 05:02:57;;;;;;;637.50;601.15;;;;;;;;;;4999677;28;20440;-64
2021/08/08 05:05:22;;;;;;;670.80;631.72;;;;;;;;;;4999379;28;20030;-63
2021/08/08 05:07:48;;;;;;;657.97;621.25;;;;;;;;;;5002587;28;20029;-63
2021/08/08 05:10:14;;;;;;;663.25;625.70;;;;;;;;;;5000416;28;20430;-65
2021/08/08 05:12:40;;;;;;;671.58;633.85;;;;;;;;;;4999296;28;20061;-63
2021/08/08 05:15:06;;;;;;;704.40;664.15;;;;;;;;;;5001427;28;20125;-63
2021/08/08 05:17:31;;;;;;;709.50;669.33;;;;;;;;;;5001180;28;20133;-64
2021/08/08 05:19:56;;;;;;;703.40;663.38;;;;;;;;;;5000574;28;20069;-63
2021/08/08 05:22:21;;;;;;;730.75;689.35;;;;;;;;;;4999521;28;20030;-63
2021/08/08 05:24:47;;;;;;;722.63;681.05;;;;;;;;;;4999938;28;20371;-64
2021/08/08 05:27:12;;;;;;;720.63;679.35;;;;;;;;;;4983070;28;20121;-63
2021/08/08 05:29:37;;;;;;;737.90;695.53;;;;;;;;;;4984694;28;20045;-63
2021/08/08 05:32:03;;;;;;;733.10;690.75;;;;;;;;;;4998593;28;20112;-64
2021/08/08 05:34:28;;;;;;;752.25;708.88;;;;;;;;;;5001233;28;20033;-63
2021/08/08 05:36:53;;;;;;;754.67;711.17;;;;;;;;;;4998045;28;20030;-63
2021/08/08 05:39:18;;;;;;;794.58;748.63;;;;;;;;;;4998852;28;20074;-64
2021/08/08 05:41:44;;;;;;;810.05;762.75;;;;;;;;;;4998090;28;20312;-64
2021/08/08 05:44:09;;;;;;;811.75;764.03;;;;;;;;;;5000442;28;20050;-64
2021/08/08 05:46:34;;;;;;;836.05;786.05;;;;;;;;;;5000917;28;20448;-63
2021/08/08 05:48:59;;;;;;;828.90;778.40;;;;;;;;;;5000160;28;20026;-64
2021/08/08 05:51:25;;;;;;;812.15;762.78;;;;;;;;;;5000425;28;20022;-64
2021/08/08 05:53:50;;;;;;;807.75;760.25;;;;;;;;;;5001549;28;20092;-64
2021/08/08 05:56:15;;;;;;;810.53;762.65;;;;;;;;;;4998205;28;20034;-63
2021/08/08 05:58:41;;;;;;;800.33;753.88;;;;;;;;;;4998366;28;20046;-64
2021/08/08 06:01:06;;;;;;;800.53;753.70;;;;;;;;;;4982198;28;20053;-64
2021/08/08 06:03:31;;;;;;;803.28;757.15;;;;;;;;;;5000311;28;20376;-63
2021/08/08 06:05:56;;;;;;;764.67;719.85;;;;;;;;;;5001566;28;20112;-63
2021/08/08 06:08:22;;;;;;;768.38;724.08;;;;;;;;;;4998915;28;20372;-64
2021/08/08 06:10:47;;;;;;;747.88;704.63;;;;;;;;;;4999001;28;20038;-64
2021/08/08 06:13:12;;;;;;;762.80;718.42;;;;;;;;;;5000560;28;20113;-66
2021/08/08 06:15:37;;;;;;;771.03;726.60;;;;;;;;;;5001883;28;20084;-63
2021/08/08 06:18:03;;;;;;;766.90;722.65;;;;;;;;;;4998916;28;20312;-63
2021/08/08 06:20:28;;;;;;;763.85;719.78;;;;;;;;;;5000562;28;20036;-64
2021/08/08 06:22:53;;;;;;;766.35;722.10;;;;;;;;;;5000356;28;20272;-64
2021/08/08 06:25:18;;;;;;;760.65;716.40;;;;;;;;;;4980840;28;20359;-63
2021/08/08 06:27:44;;;;;;;790.28;744.22;;;;;;;;;;5000170;28;20030;-64
2021/08/08 06:30:10;;;;;;;765.50;720.78;;;;;;;;;;4999402;28;20045;-63
2021/08/08 06:32:35;;;;;;;765.38;720.58;;;;;;;;;;4997646;28;20294;-63
2021/08/08 06:35:00;;;;;;;773.25;728.88;;;;;;;;;;4998801;28;20030;-63
2021/08/08 06:37:26;;;;;;;771.83;727.58;;;;;;;;;;4999373;28;20045;-63
2021/08/08 06:39:51;;;;;;;751.72;708.05;;;;;;;;;;4999490;28;20033;-63
2021/08/08 06:42:16;;;;;;;759.38;715.47;;;;;;;;;;4991276;28;20022;-63
2021/08/08 06:44:42;;;;;;;725.53;683.65;;;;;;;;;;4998957;28;20022;-64
2021/08/08 06:47:07;;;;;;;751.55;707.95;;;;;;;;;;4997626;28;20100;-62
2021/08/08 06:49:32;;;;;;;644.58;607.10;;;;;;;;;;4997664;28;20030;-65
2021/08/08 06:51:58;;;;;;;727.95;685.92;;;;;;;;;;5000217;28;20030;-63
2021/08/08 06:54:23;;;;;;;675.30;636.63;;;;;;;;;;4999013;28;20295;-63
2021/08/08 06:56:48;;;;;;;692.22;652.65;;;;;;;;;;4998725;28;20442;-63
2021/08/08 06:59:14;;;;;;;671.63;633.53;;;;;;;;;;4996785;28;20049;-64
2021/08/08 07:01:39;;;;;;;651.63;614.17;;;;;;;;;;4998718;28;20032;-63
2021/08/08 07:04:04;;;;;;;627.65;592.17;;;;;;;;;;4996752;28;20354;-63
2021/08/08 07:06:30;;;;;;;572.47;540.60;;;;;;;;;;4997269;28;20034;-63
2021/08/08 07:08:55;;;;;;;534.33;504.95;;;;;;;;;;4997392;28;20125;-63
2021/08/08 07:11:20;;;;;;;514.53;486.73;;;;;;;;;;4997860;28;20076;-63
2021/08/08 07:13:46;;;;;;;534.47;505.05;;;;;;;;;;5000656;28;20427;-63
2021/08/08 07:16:11;;;;;;;491.80;465.58;;;;;;;;;;4997264;28;20082;-63
2021/08/08 07:18:36;;;;;;;462.05;437.80;;;;;;;;;;4997923;28;20038;-63
2021/08/08 07:21:02;;;;;;;450.02;426.48;;;;;;;;;;5000583;28;20026;-64
2021/08/08 07:23:27;;;;;;;446.98;424.10;;;;;;;;;;4988158;28;20057;-63
2021/08/08 07:25:52;;;;;;;457.15;433.15;;;;;;;;;;4998563;28;20375;-63
2021/08/08 07:28:17;;;;;;;430.02;408.10;;;;;;;;;;4998329;28;20034;-63
2021/08/08 07:30:43;;;;;;;443.20;420.13;;;;;;;;;;4998011;28;20265;-63
2021/08/08 07:33:08;;;;;;;455.45;431.67;;;;;;;;;;4998998;28;20034;-63
2021/08/08 07:35:36;;;;;;;447.60;423.98;;;;;;;;;;4999230;28;20031;-63
2021/08/08 07:38:02;;;;;;;455.33;431.95;;;;;;;;;;4999026;28;20034;-63
2021/08/08 07:40:27;;;;;;;461.23;436.88;;;;;;;;;;4999854;28;20108;-63
2021/08/08 07:42:53;;;;;;;463.88;438.55;;;;;;;;;;4999718;28;20261;-63
2021/08/08 07:45:18;;;;;;;604.42;570.30;;;;;;;;;;4998839;28;20094;-63
2021/08/08 07:47:43;;;;;;;585.83;552.63;;;;;;;;;;4999864;28;20117;-63
2021/08/08 07:50:09;;;;;;;533.28;504.23;;;;;;;;;;5005082;28;20276;-63
2021/08/08 07:52:34;;;;;;;525.70;496.92;;;;;;;;;;5001940;28;20053;-63
2021/08/08 07:55:00;;;;;;;501.05;473.90;;;;;;;;;;5001498;28;20351;-63
2021/08/08 07:57:25;;;;;;;509.27;481.48;;;;;;;;;;5003541;28;20066;-63
2021/08/08 07:59:50;;;;;;;517.72;488.80;;;;;;;;;;5003128;28;20318;-63
2021/08/08 08:02:16;;;;;;;526.78;498.00;;;;;;;;;;5000961;28;20349;-64
2021/08/08 08:04:43;;;;;;;532.10;503.10;;;;;;;;;;5001371;28;20018;-63
2021/08/08 08:07:08;;;;;;;544.72;515.60;;;;;;;;;;5002223;28;20026;-63
2021/08/08 08:09:34;;;;;;;532.25;502.98;;;;;;;;;;5002727;28;20049;-63
2021/08/08 08:11:59;;;;;;;537.00;506.83;;;;;;;;;;5001982;28;20026;-63
2021/08/08 08:14:24;;;;;;;523.70;495.52;;;;;;;;;;4999698;28;20121;-65
2021/08/08 08:16:50;;;;;;;550.55;520.33;;;;;;;;;;5000354;28;20268;-63
2021/08/08 08:19:15;;;;;;;555.20;525.17;;;;;;;;;;5001799;28;20026;-63
2021/08/08 08:21:40;;;;;;;573.35;541.90;;;;;;;;;;4999770;28;20438;-63
2021/08/08 08:24:05;;;;;;;592.75;559.97;;;;;;;;;;5002610;28;20033;-63
2021/08/08 08:26:31;;;;;;;612.65;578.17;;;;;;;;;;5000947;28;20030;-63
2021/08/08 08:28:56;;;;;;;616.75;582.72;;;;;;;;;;5001793;28;20034;-63
2021/08/08 08:31:21;;;;;;;632.22;596.28;;;;;;;;;;5002210;28;20088;-63
2021/08/08 08:33:46;;;;;;;794.55;747.53;;;;;;;;;;5001299;28;20495;-64
2021/08/08 08:36:12;;;;;;;741.47;698.03;;;;;;;;;;5001403;28;20497;-64
2021/08/08 08:38:37;;;;;;;682.30;642.97;;;;;;;;;;5001057;28;20046;-63
2021/08/08 08:41:03;;;;;;;668.13;630.15;;;;;;;;;;4982906;28;20061;-63
2021/08/08 08:43:29;;;;;;;637.05;601.45;;;;;;;;;;4998922;28;20360;-63
2021/08/08 08:45:54;;;;;;;643.78;605.33;;;;;;;;;;5000013;28;20438;-62
2021/08/08 08:48:20;;;;;;;576.88;544.72;;;;;;;;;;5001988;28;20029;-63
2021/08/08 08:50:53;;;;;;;541.90;512.35;;;;;;;;;;5002017;28;20276;-63
2021/08/08 08:53:19;;;;;;;521.67;493.50;;;;;;;;;;5000950;28;20129;-64
2021/08/08 08:55:45;;;;;;;499.35;472.73;;;;;;;;;;5001592;28;20030;-63
2021/08/08 08:58:11;;;;;;;460.70;436.25;;;;;;;;;;5001973;28;20048;-63
2021/08/08 09:00:36;;;;;;;448.75;424.42;;;;;;;;;;5001925;28;20347;-63
2021/08/08 09:03:01;;;;;;;418.52;396.70;;;;;;;;;;4992736;28;20053;-63
2021/08/08 09:05:27;;;;;;;404.33;383.52;;;;;;;;;;5003258;28;20058;-64
2021/08/08 09:07:53;;;;;;;387.75;368.05;;;;;;;;;;5002415;28;20041;-64
2021/08/08 09:10:21;;;;;;;377.63;358.25;;;;;;;;;;5001814;28;20089;-63
2021/08/08 09:12:56;;;;;;;378.92;360.08;;;;;;;;;;5002404;28;20038;-64
2021/08/08 09:15:21;;;;;;;;;;;;;;;;;;5001778;28;20036;-64
2021/08/08 09:17:46;;;;;;;332.42;316.27;;;;;;;;;;5000654;28;19965;-64
2021/08/08 09:20:12;;;;;;;348.25;330.73;;;;;;;;;;5002497;28;20053;-64
2021/08/08 09:22:37;;;;;;;331.65;315.67;;;;;;;;;;5001242;28;20018;-64
2021/08/08 09:25:03;;;;;;;310.73;296.17;;;;;;;;;;5000717;28;20034;-64
2021/08/08 09:27:34;;;;;;;325.55;310.10;;;;;;;;;;5001629;28;20101;-63
2021/08/08 09:30:00;;;;;;;314.40;299.25;;;;;;;;;;4999817;28;20069;-63
2021/08/08 09:32:29;;;;;;;313.67;298.35;;;;;;;;;;4999923;28;20038;-63
2021/08/08 09:35:03;;;;;;;285.27;272.35;;;;;;;;;;5001911;28;20374;-63
2021/08/08 09:37:28;;;;;;;274.98;262.60;;;;;;;;;;5001912;28;20073;-63
2021/08/08 09:39:54;;;;;;;273.65;261.30;;;;;;;;;;5001994;28;20109;-63
2021/08/08 09:42:24;;;;;;;247.10;235.60;;;;;;;;;;5000730;28;20520;-64
2021/08/08 09:44:53;;;;;;;242.40;230.88;;;;;;;;;;5003077;28;20018;-64
2021/08/08 09:47:20;;;;;;;249.68;237.88;;;;;;;;;;4998183;28;20041;-64
2021/08/08 09:50:04;;;;;;;268.50;255.65;;;;;;;;;;5001351;28;20294;-64
2021/08/08 09:52:29;;;;;;;272.55;260.10;;;;;;;;;;5001725;28;20355;-64
2021/08/08 09:54:54;;;;;;;275.25;262.48;;;;;;;;;;5000803;28;20100;-64
2021/08/08 09:57:20;;;;;;;253.15;241.80;;;;;;;;;;5000382;28;20060;-63
2021/08/08 09:59:46;;;;;;;221.20;211.30;;;;;;;;;;5001008;28;20476;-63
2021/08/08 10:02:14;;;;;;;243.85;232.48;;;;;;;;;;5000479;28;20010;-63
2021/08/08 10:04:39;;;;;;;265.85;253.30;;;;;;;;;;5000561;28;20021;-62
2021/08/08 10:07:05;;;;;;;259.75;247.65;;;;;;;;;;4983633;28;20044;-61
2021/08/08 10:09:31;;;;;;;247.50;236.18;;;;;;;;;;5001310;28;20446;-62
2021/08/08 10:11:59;;;;;;;239.38;228.48;;;;;;;;;;5001561;28;20114;-62
2021/08/08 10:14:25;;;;;;;288.50;275.13;;;;;;;;;;5001408;28;20026;-62
2021/08/08 10:16:50;;;;;;;297.75;283.40;;;;;;;;;;4998675;28;20036;-62
2021/08/08 10:19:17;;;;;;;290.05;276.58;;;;;;;;;;5000416;28;20033;-63
2021/08/08 10:21:44;;;;;;;296.08;281.77;;;;;;;;;;5001088;28;20082;-63
2021/08/08 10:24:10;;;;;;;288.38;275.10;;;;;;;;;;5001665;28;20033;-63
2021/08/08 10:26:36;;;;;;;281.38;268.25;;;;;;;;;;5002468;28;20036;-63
2021/08/08 10:29:02;;;;;;;297.30;282.95;;;;;;;;;;5002792;28;20022;-63
2021/08/08 10:31:29;;;;;;;421.48;399.55;;;;;;;;;;5000715;28;20032;-63
2021/08/08 10:33:56;;;;;;;389.98;370.38;;;;;;;;;;5001260;28;20024;-62
2021/08/08 10:36:26;;;;;;;360.88;342.92;;;;;;;;;;5002042;28;20121;-63
2021/08/08 10:38:52;;;;;;;38.40;35.38;;;;;;;;;;5001436;28;20541;-63
2021/08/08 10:41:17;;;;;;;17.83;12.48;;;;;;;;;;4997700;28;20153;-63
2021/08/08 10:43:46;;;;;;;13.75;7.45;;;;;;;;;;5001669;28;20565;-63
2021/08/08 10:46:12;;;;;;;12.45;6.05;;;;;;;;;;5001895;28;20026;-63
2021/08/08 10:48:38;;;;;;;15.13;6.45;;;;;;;;;;4999119;28;20030;-63
2021/08/08 10:51:24;;;;;;;15.05;6.07;;;;;;;;;;5000392;28;20076;-63
2021/08/08 10:53:59;;;;;;;23.05;8.93;;;;;;;;;;5000447;28;20045;-64
2021/08/08 10:56:25;;;;;;;18.90;8.38;;;;;;;;;;4985882;28;20034;-63
2021/08/08 10:58:50;;;;;;;17.75;7.30;;;;;;;;;;5000078;28;20358;-63
2021/08/08 11:01:16;;;;;;;14.27;6.20;;;;;;;;;;5000945;28;20026;-63
2021/08/08 11:03:51;;;;;;;19.75;8.40;;;;;;;;;;5000801;28;20414;-63
2021/08/08 11:12:04;;;;;;;3.97;2.78;;;;;;;;;;4942762;28;20054;-89
2021/08/08 11:14:29;;;;;;;6.00;4.68;;;;;;;;;;5009636;28;20042;-90
2021/08/08 11:17:03;;;;;;;5.88;3.65;;;;;;;;;;4998165;28;20018;-88
2021/08/08 11:19:32;;;;;;;16.65;15.18;;;;;;;;;;4990567;28;20022;-88
2021/08/08 11:22:10;;;;;;;83.03;79.40;;;;;;;;;;5002989;28;20117;-88
2021/08/08 11:24:40;;;;;;;106.60;102.28;;;;;;;;;;5005343;28;20062;-93
2021/08/08 11:27:08;;;;;;;124.25;118.63;;;;;;;;;;5011491;28;20148;-92
2021/08/08 11:29:34;;;;;;;85.40;81.38;;;;;;;;;;5002601;28;20065;-90
2021/08/08 11:32:00;;;;;;;157.15;150.18;;;;;;;;;;5003740;28;20372;-91
2021/08/08 11:34:26;;;;;;;123.63;118.30;;;;;;;;;;5002380;28;20050;-91
2021/08/08 11:36:51;;;;;;;195.93;187.40;;;;;;;;;;4997038;28;20042;-89
2021/08/08 11:39:17;;;;;;;281.15;268.65;;;;;;;;;;4998477;28;20025;-87
2021/08/08 11:41:42;;;;;;;174.43;166.55;;;;;;;;;;5004079;28;20042;-88
2021/08/08 11:44:12;;;;;;;264.60;252.68;;;;;;;;;;5030150;28;20108;-91
2021/08/08 11:46:39;;;;;;;311.88;297.23;;;;;;;;;;5021466;28;20022;-90
2021/08/08 11:49:14;;;;;;;235.73;225.50;;;;;;;;;;5035790;28;19998;-91
2021/08/08 11:51:41;;;;;;;305.55;291.30;;;;;;;;;;5029975;28;20018;-88
2021/08/08 11:54:06;;;;;;;547.15;515.75;;;;;;;;;;5012740;28;20030;-89
2021/08/08 11:56:32;;;;;;;522.58;493.23;;;;;;;;;;5035062;28;20069;-87
2021/08/08 11:58:57;;;;;;;506.27;478.42;;;;;;;;;;5009301;28;20022;-89
2021/08/08 12:01:23;;;;;;;419.88;398.45;;;;;;;;;;5003781;28;20018;-89
2021/08/08 12:04:09;;;;;;;463.25;438.48;;;;;;;;;;5014028;28;20014;-91
2021/08/08 12:06:34;;;;;;;480.75;454.92;;;;;;;;;;5037206;28;20100;-86
2021/08/08 12:09:00;;;;;;;475.08;449.65;;;;;;;;;;5010118;28;20018;-87
2021/08/08 12:11:26;;;;;;;551.70;520.22;;;;;;;;;;5008342;28;20073;-88
2021/08/08 12:14:09;;;;;;;510.00;481.83;;;;;;;;;;5026932;28;20019;-87
2021/08/08 12:16:36;;;;;;;521.25;492.25;;;;;;;;;;5013519;28;20018;-87
2021/08/08 12:19:02;;;;;;;507.92;480.10;;;;;;;;;;5009623;28;20379;-88
2021/08/08 12:21:32;;;;;;;493.02;466.33;;;;;;;;;;5009466;28;20002;-85
2021/08/08 12:24:08;;;;;;;481.85;456.00;;;;;;;;;;5011949;28;20014;-85
2021/08/08 12:26:33;;;;;;;504.23;476.65;;;;;;;;;;5007107;28;20072;-86
2021/08/08 12:29:08;;;;;;;506.65;478.95;;;;;;;;;;5025735;28;20488;-86
2021/08/08 12:31:41;;;;;;;521.53;492.40;;;;;;;;;;5009515;28;20022;-88
2021/08/08 12:34:09;;;;;;;414.27;393.05;;;;;;;;;;5014442;28;20006;-87
2021/08/08 12:36:35;;;;;;;383.05;363.90;;;;;;;;;;5026143;28;20109;-86
2021/08/08 12:39:01;;;;;;;376.38;357.95;;;;;;;;;;5026251;28;20041;-87
2021/08/08 12:41:27;;;;;;;481.27;455.23;;;;;;;;;;5026533;28;20033;-86
2021/08/08 12:43:57;;;;;;;596.30;561.28;;;;;;;;;;5010706;28;20100;-85
2021/08/08 12:46:27;;;;;;;486.50;460.13;;;;;;;;;;5012832;28;20423;-87
2021/08/08 12:48:57;;;;;;;459.90;435.42;;;;;;;;;;5028259;28;20076;-90
2021/08/08 12:51:23;;;;;;;481.52;455.70;;;;;;;;;;5027107;28;20109;-89
2021/08/08 12:53:48;;;;;;;568.47;535.85;;;;;;;;;;5010923;28;20078;-87
2021/08/08 12:56:13;;;;;;;536.00;505.42;;;;;;;;;;5012194;28;20093;-90
2021/08/08 12:58:38;;;;;;;521.40;492.60;;;;;;;;;;5014516;28;20026;-90
2021/08/08 13:01:04;;;;;;;489.17;462.83;;;;;;;;;;5025570;28;20047;-84
2021/08/08 13:03:29;;;;;;;511.27;483.00;;;;;;;;;;5028518;28;20025;-86
2021/08/08 13:05:55;;;;;;;515.90;487.60;;;;;;;;;;5028425;28;20494;-86
2021/08/08 13:08:20;;;;;;;514.80;486.10;;;;;;;;;;5027378;28;20033;-89
2021/08/08 13:10:45;;;;;;;495.05;466.92;;;;;;;;;;5020903;28;20002;-88
2021/08/08 13:13:10;;;;;;;499.80;472.30;;;;;;;;;;5005665;28;20092;-87
2021/08/08 13:15:36;;;;;;;527.40;498.08;;;;;;;;;;5021503;28;20393;-88
2021/08/08 13:18:01;;;;;;;529.25;499.95;;;;;;;;;;5013398;28;20066;-84
2021/08/08 13:20:26;;;;;;;510.10;481.98;;;;;;;;;;5009497;28;20026;-86
2021/08/08 13:22:52;;;;;;;516.63;488.30;;;;;;;;;;5009342;28;20086;-86
2021/08/08 13:25:17;;;;;;;516.55;488.42;;;;;;;;;;5010065;28;20050;-90
2021/08/08 13:27:43;;;;;;;531.70;501.95;;;;;;;;;;5012162;28;20055;-87
2021/08/08 13:30:09;;;;;;;528.92;499.65;;;;;;;;;;5023812;28;20036;-87
2021/08/08 13:32:34;;;;;;;529.92;500.65;;;;;;;;;;5019168;28;20022;-88
2021/08/08 13:34:59;;;;;;;548.42;517.97;;;;;;;;;;5018466;28;20009;-92
2021/08/08 13:37:25;;;;;;;540.25;510.17;;;;;;;;;;5031495;28;20044;-88
2021/08/08 13:39:50;;;;;;;525.10;496.38;;;;;;;;;;5005403;28;20021;-89
2021/08/08 13:42:17;;;;;;;525.80;496.90;;;;;;;;;;5011742;28;20513;-86
2021/08/08 13:44:42;;;;;;;522.13;493.58;;;;;;;;;;5017903;28;20057;-88
2021/08/08 13:47:07;;;;;;;506.75;479.17;;;;;;;;;;5015317;28;20428;-89
2021/08/08 13:49:33;;;;;;;506.25;478.75;;;;;;;;;;5016886;28;20024;-86
2021/08/08 13:51:58;;;;;;;515.78;487.60;;;;;;;;;;5006348;28;20459;-87
2021/08/08 13:54:24;;;;;;;521.20;492.20;;;;;;;;;;5011137;28;20018;-87
2021/08/08 13:56:49;;;;;;;468.92;444.30;;;;;;;;;;5010402;28;20026;-87
2021/08/08 13:59:15;;;;;;;492.95;466.33;;;;;;;;;;5015056;28;20018;-86
2021/08/08 14:01:40;;;;;;;518.10;489.20;;;;;;;;;;5026822;28;20014;-87